createdAt,value
2018-05-26T00:02:10.011Z,10.33
2018-05-26T00:04:38.432Z,10.50
2018-05-26T00:07:07.063Z,11.40
2018-05-26T00:09:35.692Z,9.83
2018-05-26T00:12:04.519Z,10.23
2018-05-26T00:14:33.498Z,10.93
2018-05-26T00:17:02.944Z,12.03
2018-05-26T00:19:31.086Z,10.83
2018-05-26T00:22:01.036Z,11.57
2018-05-26T00:24:29.563Z,12.07
2018-05-26T00:26:57.983Z,12.23
2018-05-26T00:29:26.510Z,12.37
2018-05-26T00:31:54.703Z,12.07
2018-05-26T00:34:23.235Z,13.00
2018-05-26T00:36:51.881Z,12.63
2018-05-26T00:39:20.026Z,13.17
2018-05-26T00:41:49.529Z,12.07
2018-05-26T00:44:18.395Z,14.27
2018-05-26T00:46:46.575Z,13.20
2018-05-26T00:49:14.810Z,13.07
2018-05-26T00:51:43.240Z,12.97
2018-05-26T00:54:11.661Z,12.93
2018-05-26T00:56:40.071Z,12.97
2018-05-26T00:59:08.713Z,13.57
2018-05-26T01:01:36.914Z,14.00
2018-05-26T01:04:05.867Z,13.23
2018-05-26T01:06:35.015Z,14.20
2018-05-26T01:09:03.965Z,12.47
2018-05-26T01:11:33.290Z,13.47
2018-05-26T01:14:01.747Z,12.17
2018-05-26T01:16:30.337Z,13.23
2018-05-26T01:18:58.998Z,13.83
2018-05-26T01:21:27.598Z,14.40
2018-05-26T01:23:56.163Z,13.70
2018-05-26T01:26:24.602Z,13.83
2018-05-26T01:28:54.677Z,12.67
2018-05-26T01:31:23.515Z,13.03
2018-05-26T01:33:52.141Z,14.13
2018-05-26T01:36:20.776Z,14.27
2018-05-26T01:38:48.930Z,15.20
2018-05-26T01:41:17.558Z,14.20
2018-05-26T01:43:46.029Z,13.70
2018-05-26T01:46:14.218Z,14.30
2018-05-26T01:48:42.882Z,14.07
2018-05-26T01:51:11.476Z,14.60
2018-05-26T01:53:39.659Z,14.13
2018-05-26T01:56:08.563Z,13.80
2018-05-26T01:58:37.194Z,14.17
2018-05-26T02:01:05.615Z,14.90
2018-05-26T02:03:34.036Z,14.27
2018-05-26T02:06:02.555Z,13.60
2018-05-26T02:08:31.495Z,14.27
2018-05-26T02:11:00.449Z,13.30
2018-05-26T02:13:28.872Z,14.37
2018-05-26T02:15:57.047Z,14.90
2018-05-26T02:18:26.310Z,13.77
2018-05-26T02:20:54.503Z,13.07
2018-05-26T02:23:22.691Z,14.70
2018-05-26T02:25:51.772Z,12.57
2018-05-26T02:28:20.782Z,16.10
2018-05-26T02:30:49.282Z,15.20
2018-05-26T02:33:17.434Z,13.73
2018-05-26T02:35:47.614Z,14.73
2018-05-26T02:38:17.052Z,16.40
2018-05-26T02:40:45.682Z,15.03
2018-05-26T02:43:14.835Z,14.73
2018-05-26T02:45:44.395Z,15.17
2018-05-26T02:48:12.937Z,15.43
2018-05-26T02:50:41.351Z,17.20
2018-05-26T02:53:11.548Z,15.80
2018-05-26T02:55:39.751Z,15.93
2018-05-26T02:58:08.188Z,15.43
2018-05-26T03:00:36.812Z,15.53
2018-05-26T03:03:05.512Z,16.33
2018-05-26T03:05:39.319Z,16.63
2018-05-26T03:08:14.296Z,17.70
2018-05-26T03:10:48.431Z,17.40
2018-05-26T03:13:22.251Z,16.63
2018-05-26T03:18:51.849Z,18.40
2018-05-26T03:21:19.990Z,17.90
2018-05-26T03:23:48.450Z,16.50
2018-05-26T03:26:16.687Z,15.53
2018-05-26T03:28:45.847Z,15.30
2018-05-26T03:31:15.001Z,16.40
2018-05-26T03:33:44.153Z,16.23
2018-05-26T03:36:14.564Z,16.70
2018-05-26T03:38:42.710Z,17.00
2018-05-26T03:41:11.402Z,15.77
2018-05-26T03:43:39.550Z,16.97
2018-05-26T03:46:07.769Z,17.57
2018-05-26T03:48:36.722Z,16.70
2018-05-26T03:51:05.922Z,15.63
2018-05-26T03:53:34.551Z,16.63
2018-05-26T03:56:28.551Z,15.90
2018-05-26T03:59:09.317Z,14.77
2018-05-26T04:01:37.486Z,14.30
2018-05-26T04:04:06.047Z,14.30
2018-05-26T04:06:34.468Z,13.07
2018-05-26T04:09:02.630Z,13.40
2018-05-26T04:11:30.817Z,12.93
2018-05-26T04:14:00.044Z,12.93
2018-05-26T04:16:29.405Z,14.60
2018-05-26T04:18:58.036Z,12.67
2018-05-26T04:21:26.679Z,12.17
2018-05-26T04:23:54.867Z,13.77
2018-05-26T04:26:24.202Z,12.73
2018-05-26T04:28:52.870Z,13.27
2018-05-26T04:31:22.126Z,13.37
2018-05-26T04:33:50.652Z,13.33
2018-05-26T04:36:19.494Z,11.87
2018-05-26T04:38:48.422Z,12.57
2018-05-26T04:41:17.419Z,12.13
2018-05-26T04:43:45.615Z,12.10
2018-05-26T04:46:15.056Z,12.57
2018-05-26T04:48:43.582Z,12.43
2018-05-26T04:51:11.738Z,13.07
2018-05-26T04:53:40.216Z,13.33
2018-05-26T04:56:08.637Z,13.30
2018-05-26T04:58:37.058Z,13.50
2018-05-26T05:01:05.479Z,13.07
2018-05-26T05:03:33.682Z,13.63
2018-05-26T05:06:02.623Z,13.80
2018-05-26T05:08:30.819Z,13.50
2018-05-26T05:10:59.269Z,13.87
2018-05-26T05:13:27.451Z,12.43
2018-05-26T05:15:56.518Z,13.00
2018-05-26T05:18:25.698Z,12.73
2018-05-26T05:20:54.926Z,12.23
2018-05-26T05:23:23.568Z,12.90
2018-05-26T05:25:52.617Z,12.53
2018-05-26T05:28:21.446Z,11.43
2018-05-26T05:30:49.987Z,11.37
2018-05-26T05:33:18.611Z,11.00
2018-05-26T05:35:47.137Z,11.27
2018-05-26T05:38:16.394Z,12.17
2018-05-26T05:40:44.574Z,11.73
2018-05-26T05:43:12.835Z,11.87
2018-05-26T05:45:41.971Z,10.80
2018-05-26T05:48:10.601Z,11.20
2018-05-26T05:50:38.862Z,10.67
2018-05-26T05:53:07.747Z,10.27
2018-05-26T05:55:36.909Z,10.13
2018-05-26T05:58:06.051Z,10.03
2018-05-26T06:00:35.935Z,9.90
2018-05-26T06:03:04.538Z,9.23
2018-05-26T06:05:32.763Z,9.93
2018-05-26T06:08:01.419Z,10.37
2018-05-26T06:10:30.048Z,9.17
2018-05-26T06:12:59.201Z,9.70
2018-05-26T06:15:27.733Z,8.80
2018-05-26T06:17:55.866Z,8.63
2018-05-26T06:20:24.403Z,9.07
2018-05-26T06:22:53.500Z,8.90
2018-05-26T06:25:21.683Z,8.33
2018-05-26T06:27:49.858Z,8.70
2018-05-26T06:30:18.886Z,9.13
2018-05-26T06:32:47.811Z,8.67
2018-05-26T06:35:16.248Z,8.37
2018-05-26T06:37:44.703Z,7.80
2018-05-26T06:40:12.818Z,7.63
2018-05-26T06:42:41.092Z,7.73
2018-05-26T06:45:09.931Z,7.40
2018-05-26T06:47:38.859Z,7.40
2018-05-26T06:50:07.504Z,6.57
2018-05-26T06:52:35.647Z,6.73
2018-05-26T06:55:04.123Z,6.90
2018-05-26T06:57:32.663Z,6.43
2018-05-26T07:00:00.811Z,7.17
2018-05-26T07:02:29.703Z,6.90
2018-05-26T07:04:58.866Z,6.60
2018-05-26T07:07:27.288Z,6.33
2018-05-26T07:09:55.540Z,6.57
2018-05-26T07:12:23.722Z,6.40
2018-05-26T07:14:52.343Z,6.93
2018-05-26T07:17:21.180Z,6.67
2018-05-26T07:19:49.362Z,6.83
2018-05-26T07:22:17.986Z,6.50
2018-05-26T07:24:46.477Z,6.07
2018-05-26T07:27:14.594Z,5.60
2018-05-26T07:29:44.539Z,6.13
2018-05-26T07:32:13.484Z,6.50
2018-05-26T07:34:42.115Z,6.20
2018-05-26T07:37:10.745Z,5.70
2018-05-26T07:39:39.689Z,5.30
2018-05-26T07:42:08.319Z,5.97
2018-05-26T07:44:36.695Z,5.87
2018-05-26T07:47:05.996Z,5.23
2018-05-26T07:49:34.627Z,5.10
2018-05-26T07:52:02.779Z,4.80
2018-05-26T07:54:31.979Z,4.60
2018-05-26T07:57:00.587Z,5.00
2018-05-26T07:59:29.670Z,5.30
2018-05-26T08:01:57.847Z,5.10
2018-05-26T08:04:26.438Z,4.70
2018-05-26T08:06:55.769Z,5.23
2018-05-26T08:09:24.817Z,5.03
2018-05-26T08:11:53.410Z,4.60
2018-05-26T08:14:21.978Z,5.47
2018-05-26T08:16:51.439Z,4.33
2018-05-26T08:19:20.271Z,4.43
2018-05-26T08:21:48.483Z,4.53
2018-05-26T08:24:17.424Z,4.60
2018-05-26T08:26:46.258Z,4.30
2018-05-26T08:29:14.660Z,4.30
2018-05-26T08:31:42.842Z,4.93
2018-05-26T08:34:11.942Z,4.80
2018-05-26T08:36:40.912Z,4.40
2018-05-26T08:39:10.054Z,3.90
2018-05-26T08:41:38.576Z,7.03
2018-05-26T08:44:07.207Z,3.80
2018-05-26T08:46:36.427Z,4.20
2018-05-26T08:49:04.606Z,4.63
2018-05-26T08:51:33.828Z,3.60
2018-05-26T08:54:02.353Z,3.90
2018-05-26T08:56:31.387Z,4.63
2018-05-26T08:58:59.927Z,4.63
2018-05-26T09:01:28.311Z,4.27
2018-05-26T09:03:56.495Z,4.53
2018-05-26T09:06:24.681Z,4.53
2018-05-26T09:08:53.821Z,4.53
2018-05-26T09:11:22.451Z,4.13
2018-05-26T09:13:51.486Z,4.17
2018-05-26T09:16:20.014Z,3.90
2018-05-26T09:18:48.412Z,4.67
2018-05-26T09:21:16.582Z,4.40
2018-05-26T09:23:46.402Z,5.00
2018-05-26T09:26:16.306Z,4.87
2018-05-26T09:28:45.250Z,4.67
2018-05-26T09:31:13.480Z,4.77
2018-05-26T09:33:42.616Z,4.30
2018-05-26T09:36:11.468Z,3.83
2018-05-26T09:38:39.633Z,3.90
2018-05-26T09:41:07.815Z,4.40
2018-05-26T09:43:36.775Z,4.40
2018-05-26T09:46:06.624Z,4.27
2018-05-26T09:48:34.809Z,4.47
2018-05-26T09:51:03.423Z,5.40
2018-05-26T09:53:32.089Z,5.13
2018-05-26T09:56:00.768Z,6.30
2018-05-26T09:58:28.858Z,5.20
2018-05-26T10:00:57.518Z,5.33
2018-05-26T10:03:25.697Z,5.20
2018-05-26T10:05:54.648Z,5.37
2018-05-26T10:08:24.081Z,5.53
2018-05-26T10:10:52.708Z,5.53
2018-05-26T10:13:21.234Z,5.07
2018-05-26T10:15:51.314Z,5.20
2018-05-26T10:18:20.482Z,5.40
2018-05-26T10:20:48.647Z,5.20
2018-05-26T10:23:17.112Z,5.70
2018-05-26T10:25:46.374Z,5.30
2018-05-26T10:28:14.791Z,4.63
2018-05-26T10:30:44.673Z,5.27
2018-05-26T10:33:13.500Z,4.80
2018-05-26T10:35:42.143Z,4.30
2018-05-26T10:38:10.300Z,4.70
2018-05-26T10:40:39.716Z,4.33
2018-05-26T10:43:08.761Z,4.13
2018-05-26T10:45:39.706Z,4.23
2018-05-26T10:48:08.639Z,3.77
2018-05-26T10:50:37.670Z,3.97
2018-05-26T10:53:06.108Z,4.23
2018-05-26T10:55:35.250Z,4.40
2018-05-26T10:58:03.678Z,3.97
2018-05-26T11:00:31.823Z,3.60
2018-05-26T11:03:00.087Z,3.80
2018-05-26T11:05:29.242Z,3.93
2018-05-26T11:07:57.424Z,4.00
2018-05-26T11:10:25.890Z,4.10
2018-05-26T11:12:55.355Z,4.40
2018-05-26T11:15:23.530Z,4.20
2018-05-26T11:17:52.110Z,4.10
2018-05-26T11:20:20.754Z,4.30
2018-05-26T11:22:48.863Z,3.90
2018-05-26T11:25:18.734Z,4.10
2018-05-26T11:27:47.554Z,4.10
2018-05-26T11:30:15.698Z,4.23
2018-05-26T11:32:44.193Z,4.10
2018-05-26T11:35:12.342Z,4.43
2018-05-26T11:37:40.806Z,4.30
2018-05-26T11:40:09.415Z,4.50
2018-05-26T11:42:37.598Z,4.30
2018-05-26T11:45:05.819Z,4.07
2018-05-26T11:47:34.401Z,4.30
2018-05-26T11:50:05.228Z,4.33
2018-05-26T11:52:34.994Z,4.40
2018-05-26T11:55:05.096Z,4.37
2018-05-26T11:57:33.270Z,3.90
2018-05-26T12:00:02.356Z,4.40
2018-05-26T12:02:30.538Z,4.30
2018-05-26T12:04:59.722Z,4.07
2018-05-26T12:07:28.143Z,4.00
2018-05-26T12:09:56.380Z,4.37
2018-05-26T12:12:26.656Z,4.27
2018-05-26T12:14:54.798Z,4.23
2018-05-26T12:17:23.509Z,4.07
2018-05-26T12:19:52.546Z,4.00
2018-05-26T12:22:20.954Z,3.97
2018-05-26T12:24:49.597Z,4.20
2018-05-26T12:27:21.347Z,4.40
2018-05-26T12:29:49.783Z,4.43
2018-05-26T12:32:18.308Z,4.13
2018-05-26T12:34:47.971Z,3.90
2018-05-26T12:37:16.613Z,4.43
2018-05-26T12:39:45.647Z,4.60
2018-05-26T12:42:15.366Z,4.10
2018-05-26T12:44:44.592Z,4.10
2018-05-26T12:47:13.082Z,4.60
2018-05-26T12:49:41.946Z,3.93
2018-05-26T12:52:11.109Z,3.63
2018-05-26T12:54:39.290Z,4.40
2018-05-26T12:57:08.354Z,4.00
2018-05-26T12:59:36.586Z,4.10
2018-05-26T13:02:06.675Z,4.10
2018-05-26T13:04:34.834Z,3.97
2018-05-26T13:07:03.482Z,4.00
2018-05-26T13:09:31.683Z,4.37
2018-05-26T13:12:00.867Z,4.27
2018-05-26T13:14:29.512Z,4.57
2018-05-26T13:16:58.547Z,4.10
2018-05-26T13:19:27.190Z,4.00
2018-05-26T13:21:55.822Z,4.10
2018-05-26T13:24:24.973Z,4.30
2018-05-26T13:26:53.574Z,4.20
2018-05-26T13:29:22.638Z,4.07
2018-05-26T13:31:51.699Z,4.00
2018-05-26T13:34:20.122Z,3.80
2018-05-26T13:36:48.534Z,4.10
2018-05-26T13:39:17.471Z,4.00
2018-05-26T13:41:45.650Z,4.67
2018-05-26T13:44:14.522Z,4.27
2018-05-26T13:46:43.365Z,4.50
2018-05-26T13:49:12.521Z,4.07
2018-05-26T13:51:40.730Z,3.67
2018-05-26T13:54:09.266Z,4.20
2018-05-26T13:56:37.402Z,3.77
2018-05-26T13:59:06.406Z,4.17
2018-05-26T14:01:34.586Z,4.37
2018-05-26T14:04:02.863Z,4.00
2018-05-26T14:06:31.480Z,4.80
2018-05-26T14:08:59.622Z,3.90
2018-05-26T14:11:29.572Z,4.27
2018-05-26T14:13:58.411Z,4.40
2018-05-26T14:16:27.239Z,4.10
2018-05-26T14:18:55.675Z,4.40
2018-05-26T14:21:24.719Z,4.23
2018-05-26T14:23:53.542Z,4.17
2018-05-26T14:26:22.583Z,4.30
2018-05-26T14:28:51.199Z,4.10
2018-05-26T14:31:20.062Z,4.17
2018-05-26T14:33:48.675Z,4.30
2018-05-26T14:36:18.510Z,4.70
2018-05-26T14:38:48.042Z,3.90
2018-05-26T14:41:16.580Z,4.20
2018-05-26T14:43:44.727Z,4.03
2018-05-26T14:46:13.218Z,3.90
2018-05-26T14:48:41.362Z,4.27
2018-05-26T14:51:10.408Z,4.13
2018-05-26T14:53:38.721Z,3.80
2018-05-26T14:56:07.421Z,3.70
2018-05-26T14:58:38.133Z,4.10
2018-05-26T15:01:06.343Z,4.87
2018-05-26T15:03:34.525Z,3.93
2018-05-26T15:06:02.707Z,3.93
2018-05-26T15:08:32.338Z,4.17
2018-05-26T15:11:01.486Z,4.10
2018-05-26T15:13:30.026Z,3.90
2018-05-26T15:15:58.298Z,4.87
2018-05-26T15:18:27.166Z,3.80
2018-05-26T15:20:55.374Z,4.20
2018-05-26T15:23:24.426Z,3.77
2018-05-26T15:25:52.605Z,4.23
2018-05-26T15:28:20.820Z,4.23
2018-05-26T15:30:51.271Z,4.20
2018-05-26T15:33:20.424Z,4.40
2018-05-26T15:35:49.055Z,4.30
2018-05-26T15:38:17.476Z,4.07
2018-05-26T15:40:46.303Z,4.30
2018-05-26T15:43:16.290Z,4.80
2018-05-26T15:45:45.143Z,4.60
2018-05-26T15:48:13.773Z,4.20
2018-05-26T15:50:42.407Z,4.17
2018-05-26T15:53:11.555Z,4.30
2018-05-26T15:55:40.079Z,4.13
2018-05-26T15:58:08.242Z,4.63
2018-05-26T16:00:37.226Z,5.23
2018-05-26T16:03:05.662Z,5.00
2018-05-26T16:05:34.079Z,4.57
2018-05-26T16:08:02.605Z,5.47
2018-05-26T16:10:31.862Z,4.43
2018-05-26T16:13:00.818Z,4.53
2018-05-26T16:15:29.435Z,4.60
2018-05-26T16:17:57.611Z,4.87
2018-05-26T16:20:26.602Z,4.40
2018-05-26T16:22:55.224Z,4.17
2018-05-26T16:25:23.359Z,4.67
2018-05-26T16:27:52.585Z,3.97
2018-05-26T16:30:21.101Z,4.20
2018-05-26T16:32:49.637Z,4.40
2018-05-26T16:35:18.058Z,3.97
2018-05-26T16:37:46.211Z,4.60
2018-05-26T16:40:15.241Z,4.57
2018-05-26T16:42:43.790Z,4.20
2018-05-26T16:45:12.265Z,4.30
2018-05-26T16:47:41.418Z,4.37
2018-05-26T16:50:09.764Z,4.40
2018-05-26T16:52:38.365Z,4.33
2018-05-26T16:55:06.515Z,4.50
2018-05-26T16:57:34.694Z,4.50
2018-05-26T17:00:04.568Z,4.40
2018-05-26T17:02:32.757Z,4.93
2018-05-26T17:05:01.417Z,4.27
2018-05-26T17:07:29.554Z,4.63
2018-05-26T17:09:58.149Z,5.20
2018-05-26T17:12:26.780Z,5.27
2018-05-26T17:14:55.410Z,4.73
2018-05-26T17:17:23.902Z,4.47
2018-05-26T17:19:52.530Z,4.30
2018-05-26T17:22:21.391Z,4.70
2018-05-26T17:24:49.921Z,5.00
2018-05-26T17:27:18.354Z,4.50
2018-05-26T17:29:46.517Z,4.90
2018-05-26T17:32:15.443Z,5.03
2018-05-26T17:34:43.995Z,4.83
2018-05-26T17:37:12.977Z,4.73
2018-05-26T17:39:41.607Z,4.60
2018-05-26T17:42:10.430Z,4.97
2018-05-26T17:44:38.610Z,4.57
2018-05-26T17:47:07.383Z,4.57
2018-05-26T17:49:35.812Z,4.57
2018-05-26T17:52:04.445Z,4.37
2018-05-26T17:54:32.934Z,4.60
2018-05-26T17:57:01.605Z,4.50
2018-05-26T17:59:30.651Z,4.63
2018-05-26T18:02:00.418Z,4.23
2018-05-26T18:04:29.567Z,4.30
2018-05-26T18:06:58.106Z,4.73
2018-05-26T18:09:26.254Z,4.60
2018-05-26T18:11:54.430Z,4.93
2018-05-26T18:14:22.953Z,4.80
2018-05-26T18:16:51.896Z,4.43
2018-05-26T18:19:21.256Z,4.50
2018-05-26T18:21:50.096Z,4.70
2018-05-26T18:24:18.275Z,4.70
2018-05-26T18:26:47.875Z,4.70
2018-05-26T18:29:17.643Z,4.50
2018-05-26T18:31:46.079Z,5.13
2018-05-26T18:34:14.352Z,4.77
2018-05-26T18:36:42.542Z,4.57
2018-05-26T18:39:11.554Z,5.00
2018-05-26T18:41:39.725Z,4.80
2018-05-26T18:44:08.916Z,4.87
2018-05-26T18:46:37.337Z,4.77
2018-05-26T18:49:05.487Z,4.93
2018-05-26T18:51:35.537Z,4.90
2018-05-26T18:54:03.751Z,5.00
2018-05-26T18:56:32.170Z,4.80
2018-05-26T18:59:00.782Z,5.03
2018-05-26T19:01:29.295Z,4.93
2018-05-26T19:03:58.172Z,5.10
2018-05-26T19:06:27.317Z,5.10
2018-05-26T19:08:55.948Z,4.67
2018-05-26T19:11:24.254Z,4.70
2018-05-26T19:13:53.591Z,5.23
2018-05-26T19:16:22.673Z,4.80
2018-05-26T19:18:51.199Z,5.17
2018-05-26T19:21:19.726Z,5.00
2018-05-26T19:23:48.111Z,4.70
2018-05-26T19:26:16.569Z,5.03
2018-05-26T19:28:45.929Z,4.70
2018-05-26T19:31:14.210Z,5.00
2018-05-26T19:33:42.834Z,5.00
2018-05-26T19:36:11.583Z,5.43
2018-05-26T19:38:40.243Z,5.20
2018-05-26T19:41:08.442Z,4.87
2018-05-26T19:43:36.946Z,5.07
2018-05-26T19:46:06.118Z,5.00
2018-05-26T19:48:34.295Z,4.87
2018-05-26T19:51:02.542Z,5.57
2018-05-26T19:53:31.186Z,5.57
2018-05-26T19:55:59.610Z,5.00
2018-05-26T19:58:28.655Z,5.07
2018-05-26T20:00:57.406Z,5.20
2018-05-26T20:03:25.603Z,4.77
2018-05-26T20:05:54.743Z,5.07
2018-05-26T20:08:23.389Z,5.07
2018-05-26T20:10:51.538Z,5.30
2018-05-26T20:13:20.332Z,5.50
2018-05-26T20:15:48.486Z,5.57
2018-05-26T20:18:16.965Z,5.50
2018-05-26T20:20:45.458Z,5.70
2018-05-26T20:23:13.913Z,5.70
2018-05-26T20:25:42.507Z,5.10
2018-05-26T20:28:11.374Z,5.37
2018-05-26T20:30:39.921Z,5.27
2018-05-26T20:33:08.643Z,5.57
2018-05-26T20:35:38.713Z,5.20
2018-05-26T20:38:07.558Z,5.13
2018-05-26T20:40:36.927Z,5.40
2018-05-26T20:43:05.106Z,5.53
2018-05-26T20:45:33.987Z,5.87
2018-05-26T20:48:02.512Z,5.97
2018-05-26T20:50:31.666Z,5.90
2018-05-26T20:53:00.191Z,6.27
2018-05-26T20:55:30.167Z,6.07
2018-05-26T20:57:58.808Z,6.30
2018-05-26T21:00:27.439Z,7.07
2018-05-26T21:02:56.035Z,6.07
2018-05-26T21:05:24.262Z,6.73
2018-05-26T21:07:52.482Z,6.33
2018-05-26T21:10:21.542Z,6.37
2018-05-26T21:12:50.679Z,7.07
2018-05-26T21:15:20.160Z,6.77
2018-05-26T21:17:48.859Z,6.90
2018-05-26T21:20:17.420Z,6.97
2018-05-26T21:22:45.567Z,6.03
2018-05-26T21:25:14.158Z,6.33
2018-05-26T21:27:42.820Z,6.40
2018-05-26T21:30:11.209Z,7.13
2018-05-26T21:32:39.358Z,6.80
2018-05-26T21:35:07.535Z,6.90
2018-05-26T21:37:36.667Z,6.40
2018-05-26T21:40:06.215Z,6.77
2018-05-26T21:42:34.446Z,6.40
2018-05-26T21:45:02.855Z,6.87
2018-05-26T21:47:31.934Z,6.53
2018-05-26T21:50:01.295Z,6.60
2018-05-26T21:52:29.577Z,6.63
2018-05-26T21:54:58.647Z,6.93
2018-05-26T21:57:28.381Z,7.33
2018-05-26T21:59:56.554Z,6.50
2018-05-26T22:02:25.137Z,7.03
2018-05-26T22:04:53.324Z,6.70
2018-05-26T22:07:22.270Z,6.80
2018-05-26T22:09:50.858Z,7.10
2018-05-26T22:12:19.384Z,6.00
2018-05-26T22:14:48.838Z,7.00
2018-05-26T22:17:17.480Z,6.30
2018-05-26T22:19:46.527Z,7.00
2018-05-26T22:22:15.053Z,7.07
2018-05-26T22:24:43.235Z,6.50
2018-05-26T22:27:11.503Z,6.60
2018-05-26T22:29:41.152Z,6.63
2018-05-26T22:32:10.136Z,6.73
2018-05-26T22:34:38.621Z,6.40
2018-05-26T22:37:07.147Z,6.47
2018-05-26T22:39:36.810Z,7.03
2018-05-26T22:42:05.244Z,5.87
2018-05-26T22:44:33.382Z,6.90
2018-05-26T22:47:03.827Z,6.80
2018-05-26T22:49:33.226Z,6.57
2018-05-26T22:52:02.270Z,7.10
2018-05-26T22:54:30.447Z,6.77
2018-05-26T22:56:59.646Z,6.70
2018-05-26T22:59:28.265Z,6.13
2018-05-26T23:01:56.406Z,5.90
2018-05-26T23:04:24.963Z,7.13
2018-05-26T23:06:53.151Z,7.10
2018-05-26T23:09:21.326Z,7.00
2018-05-26T23:11:50.267Z,6.50
2018-05-26T23:14:18.436Z,6.73
2018-05-26T23:16:47.250Z,7.10
2018-05-26T23:19:15.806Z,6.60
2018-05-26T23:21:45.311Z,6.50
2018-05-26T23:24:14.450Z,6.90
2018-05-26T23:26:43.615Z,6.63
2018-05-26T23:29:12.038Z,7.50
2018-05-26T23:31:40.966Z,6.93
2018-05-26T23:34:10.132Z,7.60
2018-05-26T23:36:38.727Z,6.90
2018-05-26T23:39:07.400Z,7.10
2018-05-26T23:41:35.534Z,7.00
2018-05-26T23:44:03.997Z,7.23
2018-05-26T23:46:33.179Z,6.70
2018-05-26T23:49:01.903Z,6.80
2018-05-26T23:51:30.842Z,7.00
2018-05-26T23:54:00.219Z,6.90
2018-05-26T23:56:28.358Z,6.73
2018-05-26T23:58:58.314Z,7.07
